首页
METAR-TAF:

METAR-TAF

机场 :

伊魁特機場

伊魁特, 努那武特, 加拿大

纬度: 63-45N, 经度: 068-33W, 海拔: 34米

当前天气观测

该预报发布于28分钟前的21:00 UTC
风速4节,风向北转西北
温度 -8°C
湿度 73%
气压 1021 hPa
能見度: 48.3公里
多云层高于4300英尺

METAR: CYFB 222100Z 33004KT 30SM BKN043 M08/M12 A3016 RMK SC7 SLP219

时间: 17:28 (21:28 UTC)

预报

该预报发布于3小时和46分钟前的17:42 UTC
预报有效从22日的 18点(UTC)到 23日的 18点(UTC)
风速3节,风向多变
能見度: 10公里
多云层高于4000英尺
短暂存在
从 22日的 18点(UTC)到 23日的 09点(UTC)
散云层高于4000英尺
从 23日的 0900点(UTC)
风速5节,风向北转西北
能見度: 10公里
少量云层高于3000英尺
散云层高于22000英尺

TAF: CYFB 221742Z 2218/2318 VRB03KT P6SM BKN040 TEMPO 2218/2309 SCT040 FM230900 34005KT P6SM FEW030 SCT220 RMK NXT FCST BY 230000Z

超过4000个机场的气象观测和天气预报(METAR&TAF报告)。

可查询的气象台以黄色和红色小点在地图上表示。

将鼠标移到小点上方,可查看气象台名称。

然后点击查看天气观测和预报。

如需切换地图:点击带黑十字的绿色按钮放大地图;点击带横线的绿色按钮缩小地图;或者点击绿色箭头查看邻近地区的地图。


METAR-TAF: